createdAt,value
2022-08-20T07:12:29.894Z,32.01
2022-08-20T07:15:54.871Z,32.01
2022-08-20T07:19:09.878Z,22.75
2022-08-20T07:22:33.902Z,22.77
2022-08-20T07:25:45.985Z,22.88
2022-08-20T07:29:11.901Z,22.97
2022-08-20T07:32:18.106Z,23.00
2022-08-20T07:35:41.948Z,23.05
2022-08-20T07:38:53.980Z,23.06
2022-08-20T07:42:06.939Z,23.07
2022-08-20T07:45:21.042Z,23.08
2022-08-20T07:48:44.952Z,23.05
2022-08-20T07:51:56.959Z,23.17
2022-08-20T07:55:08.991Z,23.20
2022-08-20T07:58:21.019Z,23.27
2022-08-20T08:01:47.016Z,23.40
2022-08-20T08:05:00.000Z,23.49
2022-08-20T08:08:12.027Z,23.65
2022-08-20T08:11:26.067Z,23.83
2022-08-20T08:14:38.025Z,24.04
2022-08-20T08:18:04.034Z,24.20
2022-08-20T08:21:16.038Z,24.41
2022-08-20T08:24:41.082Z,24.61
2022-08-20T08:27:53.095Z,24.92
2022-08-20T08:31:06.119Z,25.16
2022-08-20T09:32:36.254Z,25.61
2022-08-20T09:35:49.302Z,25.61
2022-08-20T09:38:50.342Z,29.51
2022-08-20T09:42:03.328Z,29.75
2022-08-20T09:45:15.334Z,29.98
2022-08-20T09:48:41.398Z,30.19
2022-08-20T09:51:42.322Z,30.30
2022-08-20T09:55:07.357Z,30.49
2022-08-20T09:58:19.370Z,30.81
2022-08-20T10:01:43.468Z,31.12
2022-08-20T10:05:12.335Z,31.25
2022-08-20T10:08:22.402Z,31.60
2022-08-20T10:11:35.428Z,31.71
2022-08-20T10:14:36.415Z,31.91
2022-08-20T10:18:01.436Z,32.04
2022-08-20T10:21:14.534Z,32.13
2022-08-20T10:24:26.461Z,32.27
2022-08-20T10:27:27.476Z,32.55
2022-08-20T10:30:51.426Z,32.49
2022-08-20T10:34:03.496Z,32.80
2022-08-20T10:37:29.486Z,32.89
2022-08-20T10:40:29.478Z,33.10
2022-08-20T10:43:54.467Z,33.27
2022-08-20T10:46:57.124Z,32.88
2022-08-20T10:50:19.544Z,33.40
2022-08-20T10:53:33.550Z,33.51
2022-08-20T10:56:46.499Z,33.74
2022-08-20T11:00:02.713Z,33.79
2022-08-20T11:03:26.607Z,34.02
2022-08-20T11:06:27.566Z,34.20
2022-08-20T11:09:55.543Z,34.26
2022-08-20T11:13:07.612Z,34.23
2022-08-20T11:16:20.633Z,34.23
2022-08-20T11:19:21.585Z,34.18
2022-08-20T11:22:45.636Z,34.17
2022-08-20T11:25:58.721Z,34.23
2022-08-20T11:29:12.654Z,34.12
2022-08-20T11:32:12.669Z,34.47
2022-08-20T11:35:49.709Z,34.59
2022-08-20T11:38:49.662Z,34.71
2022-08-20T11:42:15.783Z,34.42
2022-08-20T11:45:27.704Z,34.92
2022-08-20T11:48:40.686Z,34.99
2022-08-20T11:51:49.378Z,35.12
2022-08-20T11:54:55.147Z,35.15
2022-08-20T11:58:10.733Z,35.31
2022-08-20T12:01:22.708Z,35.57
2022-08-20T12:04:35.206Z,35.43
2022-08-20T12:07:46.792Z,35.52
2022-08-20T12:10:58.774Z,35.77
2022-08-20T12:14:12.768Z,35.92
2022-08-20T12:17:36.776Z,36.09
2022-08-20T12:20:48.797Z,36.23
2022-08-20T12:24:12.812Z,35.33
2022-08-20T12:27:32.822Z,35.33
2022-08-20T12:30:58.831Z,36.51
2022-08-20T12:33:58.797Z,36.67
2022-08-20T12:37:24.822Z,36.83
2022-08-20T12:40:36.828Z,36.44
2022-08-20T12:44:00.858Z,36.71
2022-08-20T12:47:14.870Z,36.85
2022-08-20T12:50:38.856Z,36.78
2022-08-20T12:53:50.942Z,36.76
2022-08-20T12:57:03.883Z,36.78
2022-08-20T13:00:03.953Z,36.83
2022-08-20T13:03:32.150Z,36.96
2022-08-20T13:06:41.902Z,37.00
2022-08-20T13:09:54.923Z,36.05
2022-08-20T13:12:55.129Z,36.90
2022-08-20T13:16:06.959Z,37.11
2022-08-20T13:19:20.998Z,37.26
2022-08-20T13:22:32.981Z,37.37
2022-08-20T13:25:45.957Z,37.51
2022-08-20T13:28:58.982Z,37.69
2022-08-20T13:32:11.037Z,37.80
2022-08-20T13:35:37.042Z,36.84
2022-08-20T13:38:49.039Z,37.48
2022-08-20T13:42:13.064Z,37.59
2022-08-20T13:45:14.026Z,37.69
2022-08-20T13:48:27.085Z,37.74
2022-08-20T13:51:41.055Z,37.59
2022-08-20T13:54:53.062Z,37.18
2022-08-20T13:58:05.212Z,37.65
2022-08-20T14:01:29.165Z,37.68
2022-08-20T14:04:42.098Z,37.69
2022-08-20T14:07:55.108Z,37.71
2022-08-20T14:11:20.126Z,37.69
2022-08-20T14:14:21.110Z,37.45
2022-08-20T14:17:45.144Z,37.81
2022-08-20T14:20:57.220Z,37.68
2022-08-20T14:24:24.113Z,37.74
2022-08-20T14:27:36.148Z,37.41
2022-08-20T14:30:53.302Z,37.62
2022-08-20T14:33:50.184Z,37.62
2022-08-20T14:37:03.219Z,37.57
2022-08-20T14:40:30.226Z,37.50
2022-08-20T14:43:44.201Z,37.45
2022-08-20T14:46:45.229Z,37.50
2022-08-20T14:50:09.296Z,37.24
2022-08-20T14:53:21.292Z,37.01
2022-08-20T14:56:47.236Z,37.20
2022-08-20T14:59:59.345Z,37.28
2022-08-20T15:03:12.260Z,37.25
2022-08-20T15:06:24.413Z,37.17
2022-08-20T15:09:49.294Z,36.64
2022-08-20T15:13:04.322Z,36.77
2022-08-20T15:16:17.313Z,36.18
2022-08-20T15:19:29.377Z,36.66
2022-08-20T15:22:42.349Z,36.49
2022-08-20T15:25:54.373Z,36.48
2022-08-20T15:29:23.654Z,36.64
2022-08-20T15:32:35.356Z,36.85
2022-08-20T15:35:48.386Z,36.96
2022-08-20T15:39:00.381Z,36.85
2022-08-20T15:42:12.458Z,36.95
2022-08-20T15:45:37.410Z,36.77
2022-08-20T15:49:01.387Z,36.51
2022-08-20T15:52:13.480Z,36.63
2022-08-20T15:55:37.491Z,36.27
2022-08-20T15:58:50.410Z,35.97
2022-08-20T16:02:17.445Z,36.14
2022-08-20T16:05:43.445Z,36.26
2022-08-20T16:08:58.444Z,36.11
2022-08-20T16:12:22.450Z,36.08
2022-08-20T16:15:34.449Z,35.77
2022-08-20T16:19:00.623Z,35.86
2022-08-20T16:22:12.498Z,35.69
2022-08-20T16:25:36.513Z,35.60
2022-08-20T16:28:48.484Z,35.35
2022-08-20T16:32:13.721Z,35.49
2022-08-20T16:35:29.908Z,35.52
2022-08-20T16:38:53.809Z,35.34
2022-08-20T16:42:05.824Z,35.25
2022-08-20T16:45:30.572Z,35.11
2022-08-20T16:48:42.652Z,35.03
2022-08-20T16:52:08.684Z,35.08
2022-08-20T16:55:09.788Z,34.71
2022-08-20T16:58:34.625Z,34.84
2022-08-20T17:01:46.615Z,34.75
2022-08-20T17:05:10.658Z,34.68
2022-08-20T17:08:25.950Z,34.02
2022-08-20T17:11:50.694Z,34.24
2022-08-20T17:15:07.628Z,34.27
2022-08-20T17:18:46.702Z,34.18
2022-08-20T17:21:58.638Z,33.77
2022-08-20T17:25:24.761Z,33.78
2022-08-20T17:28:37.673Z,33.69
2022-08-20T17:32:01.715Z,33.57
2022-08-20T17:35:13.685Z,33.41
2022-08-20T17:38:46.757Z,33.30
2022-08-20T17:42:00.742Z,33.12
2022-08-20T17:45:24.745Z,32.97
2022-08-20T17:48:35.749Z,32.89
2022-08-20T17:52:00.746Z,32.71
2022-08-20T17:55:12.777Z,32.55
2022-08-20T17:58:38.766Z,32.39
2022-08-20T18:01:39.784Z,32.23
2022-08-20T18:05:03.804Z,32.03
2022-08-20T18:08:19.814Z,31.86
2022-08-20T18:11:43.836Z,31.68
2022-08-20T18:15:00.844Z,31.48
2022-08-20T18:18:26.844Z,31.27
2022-08-20T18:22:06.861Z,31.08
2022-08-20T18:25:30.883Z,30.85
2022-08-20T18:28:42.867Z,30.85
2022-08-20T18:32:10.865Z,30.45
2022-08-20T18:35:32.906Z,30.14
